Time;durP1;ratioP1;P1;durP2;ratioP2;P2;SDS_P1;SDS_P2;PMS_P1;PMS_P2;Temp;Humidity;BMP_temperature;BMP_pressure;BME280_temperature;BME280_humidity;BME280_pressure;Samples;Min_cycle;Max_cycle;Signal;HPM_P1;HPM_P2
2022/09/11 00:01:17;;;;;;;29.43;17.37;;;;;;;14.11;97.23;98640.55;1822153;78;21610;-44
2022/09/11 00:03:45;;;;;;;29.77;18.70;;;;;;;14.05;97.95;98639.73;1822105;78;20971;-41
2022/09/11 00:06:16;;;;;;;32.17;18.23;;;;;;;14.05;98.06;98638.41;1821911;79;20963;-45
2022/09/11 00:08:43;;;;;;;36.90;19.17;;;;;;;13.97;99.12;98635.52;1821876;78;21037;-46
2022/09/11 00:11:17;;;;;;;35.38;19.70;;;;;;;13.95;99.08;98638.77;1822023;79;21456;-46
2022/09/11 00:13:46;;;;;;;36.60;20.08;;;;;;;13.96;98.83;98636.50;1821103;79;21037;-46
2022/09/11 00:16:35;;;;;;;32.95;20.32;;;;;;;13.90;98.93;98636.97;1821824;78;20978;-44
2022/09/11 00:19:20;;;;;;;33.67;19.75;;;;;;;13.93;99.23;98634.09;1821957;78;21011;-41
2022/09/11 00:21:49;;;;;;;34.27;19.77;;;;;;;13.94;98.92;98637.11;1821859;78;21015;-44
2022/09/11 00:24:15;;;;;;;36.38;20.52;;;;;;;13.99;98.21;98637.09;1821826;78;21540;-44
2022/09/11 00:26:41;;;;;;;39.42;20.10;;;;;;;13.91;99.37;98645.27;1821860;78;20982;-43
2022/09/11 00:29:08;;;;;;;37.13;21.15;;;;;;;13.87;99.21;98635.91;1803241;78;21472;-44
2022/09/11 00:31:34;;;;;;;39.18;20.85;;;;;;;13.81;99.37;98629.31;1798375;80;21452;-48
2022/09/11 00:34:00;;;;;;;38.50;20.32;;;;;;;13.85;98.91;98627.27;1798253;80;21017;-44
2022/09/11 00:36:30;;;;;;;40.90;21.87;;;;;;;13.87;98.81;98626.66;1798287;80;21006;-49
2022/09/11 00:38:57;;;;;;;45.03;22.98;;;;;;;13.88;98.94;98628.33;1798209;80;21017;-50
2022/09/11 00:41:28;;;;;;;40.17;21.50;;;;;;;13.79;100.00;98623.31;1798396;80;21495;-44
2022/09/11 00:44:07;;;;;;;49.23;22.50;;;;;;;13.73;100.00;98616.69;1786165;80;21027;-42
2022/09/11 00:46:47;;;;;;;39.85;22.73;;;;;;;13.77;100.00;98618.61;1776439;80;21706;-47
2022/09/11 00:49:38;;;;;;;47.98;23.25;;;;;;;13.79;100.00;98613.58;1781548;80;20990;-45
2022/09/11 00:52:28;;;;;;;44.75;23.18;;;;;;;13.81;100.00;98611.65;1781607;80;21034;-41
2022/09/11 00:55:07;;;;;;;42.03;23.85;;;;;;;13.85;100.00;98604.81;1779203;80;20974;-42
2022/09/11 00:57:38;;;;;;;42.38;23.90;;;;;;;13.85;100.00;98603.00;1781551;80;21476;-46
2022/09/11 01:00:07;;;;;;;46.60;24.12;;;;;;;13.83;100.00;98608.89;1780246;80;20948;-44
2022/09/11 01:02:35;;;;;;;45.70;24.15;;;;;;;13.85;100.00;98600.35;1781558;80;21014;-47
2022/09/11 01:05:02;;;;;;;44.90;23.10;;;;;;;13.85;100.00;98600.35;1781615;80;21022;-41
2022/09/11 01:07:29;;;;;;;47.03;24.57;;;;;;;13.91;99.80;98601.17;1781741;80;21026;-42
2022/09/11 01:09:58;;;;;;;43.87;23.92;;;;;;;13.88;100.00;98601.90;1781669;80;20979;-41
2022/09/11 01:12:53;;;;;;;45.70;24.45;;;;;;;13.83;100.00;98607.57;1781552;80;20955;-50
2022/09/11 01:15:24;;;;;;;39.08;20.82;;;;;;;13.80;100.00;98595.91;1781561;80;21496;-42
2022/09/11 01:18:07;;;;;;;42.93;23.05;;;;;;;13.81;100.00;98605.53;1781580;80;20983;-44
2022/09/11 01:20:47;;;;;;;39.05;23.90;;;;;;;13.77;100.00;98607.58;1781085;80;20983;-52
2022/09/11 01:23:44;;;;;;;38.55;23.55;;;;;;;13.75;100.00;98605.55;1779983;80;21308;-41
2022/09/11 01:26:33;;;;;;;;;;;;;;;13.78;100.00;98602.64;1784160;80;21467;-46
2022/09/11 01:29:14;;;;;;;44.85;22.75;;;;;;;13.75;100.00;98598.94;1781565;80;20100;-41
2022/09/11 01:31:58;;;;;;;45.17;23.38;;;;;;;13.78;100.00;98597.34;1781543;80;20987;-44
2022/09/11 01:34:47;;;;;;;46.15;23.83;;;;;;;13.79;100.00;98601.69;1781650;80;20948;-40
2022/09/11 01:37:19;;;;;;;43.92;23.50;;;;;;;13.80;100.00;98600.70;1780743;80;20999;-43
2022/09/11 01:39:50;;;;;;;45.17;23.70;;;;;;;13.80;100.00;98595.42;1775449;80;21015;-40
2022/09/11 01:42:19;;;;;;;39.67;22.20;;;;;;;13.80;100.00;98588.81;1781403;80;20975;-39
2022/09/11 01:44:53;;;;;;;43.28;22.05;;;;;;;13.79;100.00;98596.41;1796889;80;20991;-46
2022/09/11 01:47:20;;;;;;;37.58;20.30;;;;;;;13.82;100.00;98594.84;1798211;80;20986;-41
2022/09/11 01:49:55;;;;;;;41.33;20.97;;;;;;;13.77;100.00;98589.08;1798144;80;21025;-41
2022/09/11 01:52:28;;;;;;;39.42;20.40;;;;;;;13.78;100.00;98592.06;1798210;80;21571;-40
2022/09/11 01:55:02;;;;;;;40.40;20.85;;;;;;;13.79;100.00;98585.83;1798264;80;21479;-43
2022/09/11 01:57:36;;;;;;;43.48;21.50;;;;;;;13.65;100.00;98580.80;1796119;80;20970;-41
2022/09/11 02:00:07;;;;;;;40.23;21.42;;;;;;;13.70;100.00;98585.70;1798130;80;21025;-41
2022/09/11 02:02:41;;;;;;;42.25;20.27;;;;;;;13.77;100.00;98585.58;1798196;80;20994;-39
2022/09/11 02:05:21;;;;;;;43.13;21.00;;;;;;;13.78;100.00;98586.78;1798329;80;20951;-46
2022/09/11 02:08:07;;;;;;;38.98;20.23;;;;;;;13.78;100.00;98577.53;1798111;80;21428;-41
2022/09/11 02:10:44;;;;;;;31.52;18.67;;;;;;;13.80;100.00;98574.77;1798134;80;21491;-42
2022/09/11 02:13:22;;;;;;;27.85;16.55;;;;;;;13.83;100.00;98567.44;1798344;80;21030;-47
2022/09/11 02:15:59;;;;;;;23.20;13.45;;;;;;;13.88;100.00;98560.47;1798214;80;20962;-44
2022/09/11 02:18:48;;;;;;;18.17;12.10;;;;;;;13.87;100.00;98562.75;1798193;80;20962;-44
2022/09/11 02:21:14;;;;;;;16.60;11.05;;;;;;;13.81;100.00;98558.80;1797337;80;21018;-42
2022/09/11 02:23:40;;;;;;;19.10;11.35;;;;;;;13.80;100.00;98561.56;1798149;80;21021;-41
2022/09/11 02:26:08;;;;;;;18.90;11.00;;;;;;;13.82;100.00;98556.53;1798226;80;21033;-47
2022/09/11 02:28:36;;;;;;;14.60;9.68;;;;;;;13.81;100.00;98565.41;1798236;80;20982;-43
2022/09/11 02:31:02;;;;;;;16.90;9.90;;;;;;;13.83;100.00;98563.47;1798362;80;20959;-49
2022/09/11 02:33:34;;;;;;;13.13;9.25;;;;;;;13.82;100.00;98555.20;1798168;80;21006;-41
2022/09/11 02:36:09;;;;;;;14.65;9.65;;;;;;;13.86;100.00;98554.94;1798169;80;21037;-47
2022/09/11 02:38:45;;;;;;;13.85;9.65;;;;;;;13.86;100.00;98554.94;1796463;80;21033;-41
2022/09/11 02:44:01;;;;;;;14.93;8.63;;;;;;;13.87;100.00;98548.70;1818707;79;22245;-45
2022/09/11 02:46:48;;;;;;;12.60;8.73;;;;;;;13.86;100.00;98556.25;1791231;80;21007;-41
2022/09/11 02:49:36;;;;;;;14.30;9.18;;;;;;;13.86;100.00;98550.97;1792607;80;21436;-40
2022/09/11 02:52:39;;;;;;;13.70;9.05;;;;;;;13.89;100.00;98545.45;1792990;80;20998;-44
2022/09/11 02:55:44;;;;;;;16.17;9.10;;;;;;;13.88;100.00;98547.72;1792409;80;21006;-41
2022/09/11 02:58:26;;;;;;;12.65;8.60;;;;;;;13.88;100.00;98556.51;1793141;80;20979;-44
2022/09/11 03:00:56;;;;;;;13.30;8.90;;;;;;;13.90;100.00;98547.11;1792901;80;20986;-43
2022/09/11 03:03:22;;;;;;;9.73;7.05;;;;;;;13.86;100.00;98553.61;1792947;80;21018;-45
2022/09/11 03:05:48;;;;;;;11.08;7.37;;;;;;;13.79;100.00;98555.44;1793051;80;21491;-45
2022/09/11 03:08:18;;;;;;;12.05;7.95;;;;;;;13.84;100.00;98553.73;1793022;80;21428;-44
2022/09/11 03:10:45;;;;;;;12.13;7.53;;;;;;;13.80;100.00;98554.46;1793027;80;20991;-41
2022/09/11 03:13:12;;;;;;;;;;;;;;;13.77;100.00;98553.41;1795644;80;21488;-45
2022/09/11 03:15:37;;;;;;;14.25;7.40;;;;;;;13.70;100.00;98561.47;1793105;80;20466;-45
2022/09/11 03:18:04;;;;;;;12.30;7.20;;;;;;;13.73;100.00;98559.05;1792956;80;20975;-45
2022/09/11 03:20:30;;;;;;;12.90;7.65;;;;;;;13.72;100.00;98559.54;1792960;80;21467;-40
2022/09/11 03:22:56;;;;;;;12.80;7.05;;;;;;;13.72;100.00;98554.74;1792938;80;21003;-44
2022/09/11 03:25:26;;;;;;;12.13;7.78;;;;;;;13.71;100.00;98562.30;1793125;80;20979;-43
2022/09/11 03:27:53;;;;;;;15.43;7.87;;;;;;;13.71;100.00;98561.81;1792821;80;20971;-43
2022/09/11 03:30:20;;;;;;;11.12;7.25;;;;;;;13.69;100.00;98561.09;1793132;80;21007;-39
2022/09/11 03:32:47;;;;;;;13.78;6.67;;;;;;;13.67;100.00;98560.37;1793084;80;21519;-39
2022/09/11 03:35:13;;;;;;;11.03;6.27;;;;;;;13.66;100.00;98562.68;1793275;80;20990;-40
2022/09/11 03:37:38;;;;;;;9.38;6.40;;;;;;;13.64;100.00;98559.30;1792982;80;20978;-42
2022/09/11 03:40:06;;;;;;;9.30;6.40;;;;;;;13.66;100.00;98561.81;1792969;80;20987;-45
2022/09/11 03:42:32;;;;;;;7.05;5.97;;;;;;;13.68;100.00;98568.67;1786698;80;21015;-44
2022/09/11 03:44:58;;;;;;;11.05;6.70;;;;;;;13.71;100.00;98565.77;1765939;81;21446;-43
2022/09/11 03:47:23;;;;;;;8.65;6.37;;;;;;;13.68;100.00;98568.67;1748759;82;20969;-44
2022/09/11 03:49:49;;;;;;;11.10;6.00;;;;;;;13.70;100.00;98569.85;1748638;82;20997;-41
2022/09/11 03:52:15;;;;;;;9.25;6.30;;;;;;;13.67;100.00;98572.27;1747891;82;21050;-45
2022/09/11 03:54:41;;;;;;;9.58;6.30;;;;;;;13.61;100.00;98569.64;1746940;82;21655;-42
2022/09/11 03:57:06;;;;;;;9.60;6.65;;;;;;;13.59;100.00;98570.24;1747818;82;21510;-45
2022/09/11 03:59:32;;;;;;;8.05;6.78;;;;;;;13.58;100.00;98569.04;1748092;82;21004;-37
2022/09/11 04:01:58;;;;;;;7.55;6.78;;;;;;;13.60;100.00;98566.63;1748110;82;20977;-40
2022/09/11 04:04:24;;;;;;;9.53;7.22;;;;;;;13.59;100.00;98569.41;1748165;82;21009;-45
2022/09/11 04:06:49;;;;;;;9.58;7.33;;;;;;;13.45;100.00;98567.84;1748167;82;21008;-39
2022/09/11 04:09:16;;;;;;;10.68;7.40;;;;;;;13.44;100.00;98567.48;1748293;82;20986;-44
2022/09/11 04:11:42;;;;;;;13.28;8.20;;;;;;;13.49;100.00;98567.96;1748203;82;21013;-40
2022/09/11 04:14:08;;;;;;;10.63;7.95;;;;;;;13.40;100.00;98562.91;1748155;82;21044;-42
2022/09/11 04:16:34;;;;;;;13.60;9.08;;;;;;;13.37;100.00;98558.35;1748176;82;21037;-43
2022/09/11 04:19:01;;;;;;;10.82;8.15;;;;;;;13.33;100.00;98555.11;1748269;82;21031;-43
2022/09/11 04:21:27;;;;;;;13.50;8.55;;;;;;;13.33;100.00;98562.20;1748090;82;21505;-39
2022/09/11 04:23:56;;;;;;;11.73;7.97;;;;;;;13.34;100.00;98563.41;1748298;82;20997;-42
2022/09/11 04:26:24;;;;;;;10.68;7.60;;;;;;;13.38;100.00;98570.13;1748086;82;21513;-40
2022/09/11 04:28:50;;;;;;;10.65;7.92;;;;;;;13.31;100.00;98564.12;1748120;82;20989;-43
2022/09/11 04:31:18;;;;;;;14.13;8.58;;;;;;;13.28;100.00;98561.23;1748216;82;21482;-40
2022/09/11 04:33:44;;;;;;;10.72;7.97;;;;;;;13.30;100.00;98561.95;1748194;82;21001;-46
2022/09/11 04:36:16;;;;;;;11.40;8.25;;;;;;;13.26;100.00;98560.48;1748110;82;21001;-43
2022/09/11 04:38:43;;;;;;;11.93;8.88;;;;;;;13.27;100.00;98562.17;1748129;82;21359;-39
2022/09/11 04:41:09;;;;;;;14.13;9.20;;;;;;;13.28;100.00;98560.36;1748473;82;21012;-43
2022/09/11 04:43:37;;;;;;;15.30;8.90;;;;;;;13.31;100.00;98562.81;1748069;82;21715;-43
2022/09/11 04:46:12;;;;;;;13.88;9.25;;;;;;;13.36;100.00;98552.23;1748116;82;20997;-43
2022/09/11 04:48:58;;;;;;;15.00;10.28;;;;;;;13.36;100.00;98554.88;1748129;82;21000;-42
2022/09/11 04:51:29;;;;;;;16.12;9.98;;;;;;;13.31;100.00;98557.52;1748090;82;20997;-40
2022/09/11 04:53:56;;;;;;;15.60;10.23;;;;;;;13.32;100.00;98556.09;1748188;82;21040;-44
2022/09/11 04:56:24;;;;;;;17.95;10.60;;;;;;;13.21;100.00;98552.10;1748324;82;21406;-48
2022/09/11 04:58:57;;;;;;;15.95;10.68;;;;;;;13.17;100.00;98546.22;1748251;82;21001;-41
2022/09/11 05:01:25;;;;;;;19.92;12.10;;;;;;;13.18;100.00;98549.20;1747371;82;21040;-43
2022/09/11 05:03:51;;;;;;;22.07;12.00;;;;;;;13.16;100.00;98555.58;1748068;82;21883;-42
2022/09/11 05:06:17;;;;;;;16.42;10.55;;;;;;;13.12;100.00;98552.82;1748145;82;21505;-43
2022/09/11 05:08:44;;;;;;;15.95;10.50;;;;;;;13.14;100.00;98558.81;1748208;82;21001;-40
2022/09/11 05:11:16;;;;;;;14.87;10.43;;;;;;;13.08;100.00;98555.31;1748332;82;21162;-41
2022/09/11 05:13:43;;;;;;;14.20;10.25;;;;;;;13.09;100.00;98562.28;1748106;82;21549;-41
2022/09/11 05:16:13;;;;;;;19.15;11.30;;;;;;;13.05;100.00;98555.91;1748208;82;21004;-45
2022/09/11 05:18:41;;;;;;;19.30;10.98;;;;;;;13.05;100.00;98555.91;1748080;82;21032;-44
2022/09/11 05:21:12;;;;;;;18.85;11.88;;;;;;;13.02;100.00;98551.35;1748103;82;21454;-45
2022/09/11 05:23:38;;;;;;;23.05;12.05;;;;;;;13.05;100.00;98557.72;1747673;82;21025;-45
2022/09/11 05:26:05;;;;;;;18.67;12.05;;;;;;;13.09;100.00;98553.87;1748062;82;21024;-45
2022/09/11 05:28:32;;;;;;;18.42;12.40;;;;;;;13.13;100.00;98558.44;1748247;82;20974;-46
2022/09/11 05:30:59;;;;;;;18.90;11.63;;;;;;;13.16;100.00;98563.00;1748373;82;21338;-46
2022/09/11 05:33:27;;;;;;;22.27;12.70;;;;;;;13.14;100.00;98558.33;1748284;82;21035;-42
2022/09/11 05:35:54;;;;;;;16.95;11.57;;;;;;;13.18;100.00;98561.57;1748093;82;21454;-42
2022/09/11 05:38:21;;;;;;;20.25;12.05;;;;;;;13.24;100.00;98562.41;1748127;82;20997;-45
2022/09/11 05:40:50;;;;;;;18.30;11.97;;;;;;;13.23;100.00;98570.81;1748222;82;21121;-46
2022/09/11 05:43:18;;;;;;;17.02;11.85;;;;;;;13.29;100.00;98564.21;1752348;82;21012;-42
2022/09/11 05:45:55;;;;;;;17.37;11.88;;;;;;;13.31;100.00;98566.28;1756027;82;21019;-47
2022/09/11 05:48:21;;;;;;;;;;;;;;;13.34;100.00;98570.01;1758736;81;21028;-46
2022/09/11 05:50:56;;;;;;;22.58;11.95;;;;;;;13.35;100.00;98574.80;1756024;82;20114;-46
2022/09/11 05:53:22;;;;;;;21.20;13.32;;;;;;;13.36;100.00;98571.21;1756061;81;21036;-44
2022/09/11 05:55:50;;;;;;;22.90;12.80;;;;;;;13.40;100.00;98570.00;1756260;81;21043;-43
2022/09/11 05:58:17;;;;;;;17.02;11.73;;;;;;;13.42;100.00;98568.08;1766814;80;20995;-40
2022/09/11 06:00:47;;;;;;;16.50;11.90;;;;;;;13.50;100.00;98568.79;1787341;80;21527;-45
2022/09/11 06:03:16;;;;;;;17.25;12.05;;;;;;;13.39;100.00;98570.50;1786960;80;21029;-42
2022/09/11 06:05:42;;;;;;;20.20;13.28;;;;;;;13.36;100.00;98566.77;1786184;80;20990;-43
2022/09/11 06:08:10;;;;;;;17.20;11.78;;;;;;;13.41;100.00;98567.73;1786987;80;20986;-42
2022/09/11 06:10:38;;;;;;;;;;;;;;;13.37;100.00;98573.74;1789649;80;21329;-45
2022/09/11 06:13:04;;;;;;;18.90;12.28;;;;;;;13.41;100.00;98567.73;1786265;80;20112;-43
2022/09/11 06:15:31;;;;;;;16.25;11.68;;;;;;;13.46;100.00;98573.96;1787003;80;20975;-46
2022/09/11 06:17:58;;;;;;;18.05;11.63;;;;;;;13.43;100.00;98578.53;1787138;80;20955;-45
2022/09/11 06:20:24;;;;;;;17.90;12.47;;;;;;;13.50;100.00;98576.71;1787276;80;21519;-43
2022/09/11 06:22:49;;;;;;;18.15;11.22;;;;;;;13.47;100.00;98570.38;1786932;80;20986;-44
2022/09/11 06:25:15;;;;;;;18.73;12.20;;;;;;;13.45;100.00;98574.45;1786959;80;21003;-46
2022/09/11 06:27:41;;;;;;;19.80;11.43;;;;;;;13.51;100.00;98566.03;1786986;80;20975;-42
2022/09/11 06:30:08;;;;;;;16.40;10.48;;;;;;;13.59;100.00;98569.41;1786999;80;20952;-44
2022/09/11 06:32:34;;;;;;;18.52;10.63;;;;;;;13.67;100.00;98566.98;1787095;80;21038;-43
2022/09/11 06:34:59;;;;;;;12.98;9.98;;;;;;;13.60;100.00;98567.11;1786951;80;20963;-43
2022/09/11 06:37:25;;;;;;;15.08;9.55;;;;;;;13.70;100.00;98569.85;1786953;80;20983;-43
2022/09/11 06:39:51;;;;;;;16.27;10.70;;;;;;;13.65;100.00;98572.88;1786949;80;20991;-47
2022/09/11 06:42:18;;;;;;;15.50;10.13;;;;;;;13.70;100.00;98578.64;1786616;80;20982;-43
2022/09/11 06:44:43;;;;;;;14.78;10.28;;;;;;;13.67;100.00;98576.72;1778951;81;20983;-45
2022/09/11 06:47:09;;;;;;;13.75;9.50;;;;;;;13.70;100.00;98570.71;1778764;81;21481;-44
2022/09/11 06:49:35;;;;;;;15.40;9.53;;;;;;;13.71;100.00;98580.30;1778841;81;21105;-40
2022/09/11 06:52:01;;;;;;;15.15;10.18;;;;;;;13.72;100.00;98571.42;1778798;81;21035;-41
2022/09/11 06:54:27;;;;;;;14.75;9.85;;;;;;;13.69;100.00;98576.95;1778782;80;21003;-43
2022/09/11 06:56:52;;;;;;;14.10;9.68;;;;;;;13.69;100.00;98577.44;1778751;81;20963;-45
2022/09/11 06:59:22;;;;;;;16.90;9.85;;;;;;;13.72;100.00;98571.92;1778705;80;20991;-41
2022/09/11 07:01:46;;;;;;;14.98;9.98;;;;;;;13.67;100.00;98569.63;1765314;80;21541;-38
2022/09/11 07:04:12;;;;;;;16.20;9.95;;;;;;;13.73;100.00;98568.30;1748051;82;21029;-44
2022/09/11 07:06:38;;;;;;;13.05;9.40;;;;;;;13.74;100.00;98569.98;1747973;82;21000;-45
2022/09/11 07:09:03;;;;;;;12.58;8.73;;;;;;;13.78;100.00;98564.80;1748045;82;21029;-42
2022/09/11 07:11:32;;;;;;;12.55;9.60;;;;;;;13.77;100.00;98574.55;1747956;82;21001;-39
2022/09/11 07:14:04;;;;;;;11.20;8.33;;;;;;;13.78;100.00;98569.61;1748012;82;21028;-41
2022/09/11 07:16:29;;;;;;;12.07;8.10;;;;;;;13.76;100.00;98575.98;1747770;82;20977;-48
2022/09/11 07:18:55;;;;;;;14.40;9.03;;;;;;;13.84;100.00;98569.59;1748142;82;21443;-39
2022/09/11 07:21:24;;;;;;;11.40;8.48;;;;;;;13.87;100.00;98572.48;1747968;82;21490;-47
2022/09/11 07:23:56;;;;;;;10.82;8.38;;;;;;;13.80;100.00;98573.45;1748111;82;21109;-41
2022/09/11 07:26:25;;;;;;;12.55;8.45;;;;;;;13.87;100.00;98568.52;1748035;82;20977;-41
2022/09/11 07:28:53;;;;;;;11.90;8.10;;;;;;;13.92;100.00;98567.19;1748073;82;21005;-45
2022/09/11 07:31:23;;;;;;;15.00;8.48;;;;;;;13.93;100.00;98560.91;1748132;82;20993;-42
2022/09/11 07:33:50;;;;;;;14.13;8.85;;;;;;;13.97;100.00;98562.83;1747983;82;21561;-41
2022/09/11 07:36:19;;;;;;;11.78;8.68;;;;;;;13.98;100.00;98561.88;1727249;82;21001;-40
2022/09/11 07:38:47;;;;;;;13.40;8.88;;;;;;;13.98;100.00;98565.84;1748332;82;21048;-47
2022/09/11 07:41:15;;;;;;;12.95;9.05;;;;;;;13.94;100.00;98559.13;1748139;82;21001;-45
